Time;durP1;ratioP1;P1;durP2;ratioP2;P2;SDS_P1;SDS_P2;PMS_P1;PMS_P2;Temp;Humidity;BMP_temperature;BMP_pressure;BME280_temperature;BME280_humidity;BME280_pressure;Samples;Min_cycle;Max_cycle;Signal;HPM_P1;HPM_P2
2022/03/21 00:05:30;;;;;;;;;;;;;;;;;;;;;
2022/03/21 00:08:03;;;;;;;0.10;0.10;;;;;;;;;;4962666;29;20047;-96
2022/03/21 00:10:49;;;;;;;0.30;0.30;;;;;;;;;;4962073;29;20055;-96
2022/03/21 00:13:15;;;;;;;0.30;0.30;;;;;;;;;;4946892;29;20127;-95
2022/03/21 00:15:55;;;;;;;0.10;0.10;;;;;;;;;;4946231;29;20074;-96
2022/03/21 00:18:37;;;;;;;0.43;0.40;;;;;;;;;;4961940;29;20119;-96
2022/03/21 00:21:03;;;;;;;0.10;0.10;;;;;;;;;;4946035;29;20069;-96
2022/03/21 00:23:33;;;;;;;0.55;0.38;;;;;;;;;;4945954;29;20043;-94
2022/03/21 00:25:59;;;;;;;0.10;0.10;;;;;;;;;;4960155;28;20059;-96
2022/03/21 00:28:25;;;;;;;3.00;1.52;;;;;;;;;;4949236;29;20051;-95
2022/03/21 00:34:43;;;;;;;;;;;;;;;;;;;;;
2022/03/21 00:39:46;;;;;;;0.10;0.10;;;;;;;;;;4993947;28;20125;-92
2022/03/21 00:42:12;;;;;;;0.22;0.22;;;;;;;;;;4962773;28;20034;-95
2022/03/21 00:44:42;;;;;;;0.10;0.10;;;;;;;;;;4967645;28;20069;-96
2022/03/21 00:47:20;;;;;;;0.20;0.20;;;;;;;;;;5004380;28;20066;-96
2022/03/21 00:49:52;;;;;;;0.10;0.10;;;;;;;;;;5002105;28;20062;-96
2022/03/21 00:52:24;;;;;;;0.10;0.10;;;;;;;;;;4986906;28;20557;-96
2022/03/21 00:54:50;;;;;;;0.10;0.10;;;;;;;;;;4984666;28;20045;-95
2022/03/21 00:57:16;;;;;;;0.10;0.10;;;;;;;;;;4979696;28;20081;-94
2022/03/21 00:59:42;;;;;;;0.10;0.10;;;;;;;;;;4980099;28;20046;-96
2022/03/21 01:02:12;;;;;;;0.20;0.20;;;;;;;;;;4979387;28;20049;-96
2022/03/21 01:04:38;;;;;;;0.20;0.20;;;;;;;;;;4978636;28;20060;-93
2022/03/21 01:07:10;;;;;;;0.10;0.10;;;;;;;;;;4995867;28;20038;-91
2022/03/21 01:09:36;;;;;;;0.17;0.17;;;;;;;;;;4979711;28;20034;-95
2022/03/21 01:12:04;;;;;;;0.20;0.20;;;;;;;;;;4979429;28;20089;-92
2022/03/21 01:14:31;;;;;;;0.10;0.10;;;;;;;;;;4979372;28;20137;-95
2022/03/21 01:16:57;;;;;;;0.10;0.10;;;;;;;;;;4979099;28;20042;-94
2022/03/21 01:19:24;;;;;;;0.10;0.10;;;;;;;;;;4979547;28;20046;-96
2022/03/21 01:21:50;;;;;;;0.10;0.10;;;;;;;;;;4995932;28;20057;-95
2022/03/21 01:24:16;;;;;;;0.10;0.10;;;;;;;;;;4995437;28;20030;-96
2022/03/21 01:26:42;;;;;;;0.10;0.10;;;;;;;;;;4979582;28;20108;-95
2022/03/21 01:29:08;;;;;;;0.10;0.10;;;;;;;;;;4979679;28;20179;-96
2022/03/21 01:31:34;;;;;;;0.80;0.20;;;;;;;;;;4978582;28;20117;-92
2022/03/21 01:34:00;;;;;;;0.10;0.10;;;;;;;;;;4978689;28;20061;-95
2022/03/21 01:36:26;;;;;;;0.10;0.10;;;;;;;;;;4979400;28;20050;-93
2022/03/21 01:38:52;;;;;;;0.10;0.10;;;;;;;;;;4978651;28;20062;-95
2022/03/21 01:41:18;;;;;;;0.10;0.10;;;;;;;;;;4979209;28;20486;-94
2022/03/21 01:44:04;;;;;;;0.10;0.10;;;;;;;;;;4978678;28;20042;-94
2022/03/21 01:46:30;;;;;;;0.10;0.10;;;;;;;;;;4978820;28;20050;-94
2022/03/21 01:48:56;;;;;;;0.10;0.10;;;;;;;;;;4978346;28;20050;-95
2022/03/21 01:51:22;;;;;;;0.10;0.10;;;;;;;;;;4978691;28;20038;-96
2022/03/21 01:56:33;;;;;;;0.20;0.20;;;;;;;;;;4981103;28;20057;-95
2022/03/21 01:59:10;;;;;;;0.10;0.10;;;;;;;;;;4983730;28;20073;-95
2022/03/21 02:01:44;;;;;;;0.20;0.20;;;;;;;;;;4990601;28;20046;-96
2022/03/21 02:04:17;;;;;;;0.10;0.10;;;;;;;;;;4975655;28;20043;-95
2022/03/21 02:06:53;;;;;;;0.10;0.10;;;;;;;;;;5000049;28;20042;-95
2022/03/21 02:09:19;;;;;;;0.10;0.10;;;;;;;;;;4978421;28;20118;-95
2022/03/21 02:11:45;;;;;;;0.10;0.10;;;;;;;;;;4994724;28;20054;-93
2022/03/21 02:14:11;;;;;;;0.10;0.10;;;;;;;;;;4978159;28;20049;-95
2022/03/21 02:16:37;;;;;;;0.10;0.10;;;;;;;;;;4977827;28;20046;-93
2022/03/21 02:19:09;;;;;;;0.10;0.10;;;;;;;;;;4978122;28;20048;-95
2022/03/21 02:21:41;;;;;;;0.10;0.10;;;;;;;;;;4977986;28;20053;-95
2022/03/21 02:24:09;;;;;;;0.10;0.10;;;;;;;;;;4994496;28;20557;-93
2022/03/21 02:26:35;;;;;;;0.10;0.10;;;;;;;;;;4978277;28;20038;-95
2022/03/21 02:29:01;;;;;;;0.20;0.20;;;;;;;;;;4978078;28;20050;-95
2022/03/21 02:31:27;;;;;;;0.10;0.10;;;;;;;;;;4994073;28;20038;-96
2022/03/21 02:33:53;;;;;;;0.05;0.05;;;;;;;;;;4976910;28;20042;-96
2022/03/21 02:36:19;;;;;;;0.10;0.10;;;;;;;;;;4978075;28;20050;-95
2022/03/21 02:38:46;;;;;;;0.10;0.10;;;;;;;;;;4994187;28;20042;-96
2022/03/21 02:41:18;;;;;;;0.10;0.10;;;;;;;;;;4978306;28;20038;-96
2022/03/21 02:43:54;;;;;;;0.22;0.22;;;;;;;;;;4962509;28;20490;-95
2022/03/21 02:46:20;;;;;;;0.10;0.10;;;;;;;;;;4978158;28;20035;-95
2022/03/21 02:48:46;;;;;;;0.10;0.10;;;;;;;;;;4978063;28;20137;-95
2022/03/21 02:51:12;;;;;;;0.10;0.10;;;;;;;;;;4978296;28;20074;-94
2022/03/21 02:53:39;;;;;;;0.10;0.10;;;;;;;;;;4977665;28;20117;-96
2022/03/21 02:56:05;;;;;;;0.10;0.10;;;;;;;;;;4994940;28;20089;-95
2022/03/21 02:58:31;;;;;;;0.10;0.10;;;;;;;;;;4979040;28;20042;-96
2022/03/21 03:01:10;;;;;;;0.10;0.10;;;;;;;;;;4978130;28;20430;-96
2022/03/21 03:03:36;;;;;;;0.10;0.10;;;;;;;;;;4994146;28;20035;-96
2022/03/21 03:06:03;;;;;;;0.30;0.20;;;;;;;;;;4993807;28;20042;-94
2022/03/21 03:08:29;;;;;;;0.10;0.10;;;;;;;;;;4977855;28;20045;-96
2022/03/21 03:10:55;;;;;;;0.10;0.10;;;;;;;;;;4994060;28;20045;-96
2022/03/21 03:13:23;;;;;;;0.10;0.10;;;;;;;;;;4994892;28;20035;-96
2022/03/21 03:15:49;;;;;;;0.15;0.15;;;;;;;;;;4978437;28;20046;-96
2022/03/21 03:18:17;;;;;;;0.10;0.10;;;;;;;;;;4994562;28;20039;-95
2022/03/21 03:20:52;;;;;;;0.10;0.10;;;;;;;;;;4978059;28;20042;-93
2022/03/21 03:23:19;;;;;;;0.10;0.10;;;;;;;;;;4977080;28;20096;-94
2022/03/21 03:25:45;;;;;;;0.10;0.10;;;;;;;;;;4993499;28;20050;-96
2022/03/21 03:28:12;;;;;;;0.10;0.10;;;;;;;;;;4980147;28;20041;-96
2022/03/21 03:30:38;;;;;;;0.10;0.10;;;;;;;;;;4965196;28;20144;-93
2022/03/21 03:33:04;;;;;;;0.10;0.10;;;;;;;;;;4981370;28;20038;-94
2022/03/21 03:35:31;;;;;;;0.10;0.10;;;;;;;;;;4981265;28;20046;-95
2022/03/21 03:37:57;;;;;;;0.10;0.10;;;;;;;;;;4981121;28;20089;-95
2022/03/21 03:40:23;;;;;;;0.10;0.10;;;;;;;;;;4981267;28;20042;-95
2022/03/21 03:42:49;;;;;;;0.10;0.10;;;;;;;;;;4980950;28;20199;-95
2022/03/21 03:45:15;;;;;;;0.10;0.10;;;;;;;;;;4997508;28;20046;-94
2022/03/21 03:47:42;;;;;;;0.10;0.10;;;;;;;;;;4981009;28;20058;-95
2022/03/21 03:50:08;;;;;;;0.10;0.10;;;;;;;;;;4980817;28;20046;-95
2022/03/21 03:52:34;;;;;;;0.10;0.10;;;;;;;;;;4980937;28;20039;-96
2022/03/21 03:55:00;;;;;;;0.10;0.10;;;;;;;;;;4980878;28;20046;-94
2022/03/21 03:57:26;;;;;;;0.10;0.10;;;;;;;;;;4981003;28;20132;-94
2022/03/21 03:59:52;;;;;;;0.10;0.10;;;;;;;;;;4996822;28;20045;-95
2022/03/21 04:02:18;;;;;;;0.10;0.10;;;;;;;;;;4980522;28;20129;-95
2022/03/21 04:04:44;;;;;;;0.10;0.10;;;;;;;;;;4979320;28;20118;-95
2022/03/21 04:07:11;;;;;;;0.10;0.10;;;;;;;;;;4982884;28;20406;-96
2022/03/21 04:09:39;;;;;;;0.10;0.10;;;;;;;;;;4984040;28;20042;-95
2022/03/21 04:12:05;;;;;;;0.10;0.10;;;;;;;;;;4980414;28;20085;-92
2022/03/21 04:14:32;;;;;;;0.10;0.10;;;;;;;;;;4996394;28;20038;-94
2022/03/21 04:16:58;;;;;;;0.10;0.10;;;;;;;;;;4980452;28;20046;-93
2022/03/21 04:19:24;;;;;;;0.10;0.10;;;;;;;;;;4980499;28;20133;-94
2022/03/21 04:21:51;;;;;;;0.10;0.10;;;;;;;;;;4980080;28;20133;-94
2022/03/21 04:24:17;;;;;;;0.10;0.10;;;;;;;;;;4980338;28;20100;-93
2022/03/21 04:26:44;;;;;;;0.10;0.10;;;;;;;;;;4979957;28;20085;-93
2022/03/21 04:29:13;;;;;;;0.10;0.10;;;;;;;;;;4980381;28;20047;-96
2022/03/21 04:31:39;;;;;;;0.10;0.10;;;;;;;;;;4980244;28;20065;-96
2022/03/21 04:34:05;;;;;;;0.17;0.17;;;;;;;;;;4982467;28;20077;-96
2022/03/21 04:36:31;;;;;;;0.10;0.10;;;;;;;;;;4980222;28;20486;-96
2022/03/21 04:38:57;;;;;;;0.10;0.10;;;;;;;;;;4995832;28;20080;-96
2022/03/21 04:41:23;;;;;;;0.10;0.10;;;;;;;;;;4980133;28;20449;-95
2022/03/21 04:43:49;;;;;;;0.10;0.10;;;;;;;;;;4980032;28;20042;-92
2022/03/21 04:46:15;;;;;;;0.10;0.10;;;;;;;;;;4994767;28;20053;-95
2022/03/21 04:48:41;;;;;;;0.10;0.10;;;;;;;;;;4979517;28;20042;-94
2022/03/21 04:51:07;;;;;;;0.10;0.10;;;;;;;;;;4996338;28;20045;-96
2022/03/21 04:53:33;;;;;;;0.13;0.13;;;;;;;;;;4979390;28;20054;-96
2022/03/21 04:55:59;;;;;;;0.10;0.10;;;;;;;;;;4980189;28;20083;-94
2022/03/21 04:58:25;;;;;;;0.10;0.10;;;;;;;;;;4980021;28;20047;-95
2022/03/21 05:00:52;;;;;;;0.10;0.10;;;;;;;;;;4979397;28;20085;-95
2022/03/21 05:03:18;;;;;;;0.10;0.10;;;;;;;;;;4979771;28;20038;-96
2022/03/21 05:05:44;;;;;;;0.20;0.20;;;;;;;;;;4979474;28;20042;-94
2022/03/21 05:08:10;;;;;;;0.10;0.10;;;;;;;;;;4979165;28;20042;-95
2022/03/21 05:10:36;;;;;;;0.10;0.10;;;;;;;;;;4979796;28;20043;-93
2022/03/21 05:13:06;;;;;;;0.10;0.10;;;;;;;;;;5000351;28;20121;-96
2022/03/21 05:15:36;;;;;;;0.10;0.10;;;;;;;;;;5034320;23;20128;-92
2022/03/21 05:18:02;;;;;;;0.10;0.10;;;;;;;;;;4926451;29;20055;-96
2022/03/21 05:20:29;;;;;;;0.10;0.10;;;;;;;;;;4925469;29;20023;-95
2022/03/21 05:31:12;;;;;;;0.10;0.10;;;;;;;;;;4957807;28;20635;-95
2022/03/21 05:36:25;;;;;;;0.10;0.10;;;;;;;;;;4942908;29;20054;-96
2022/03/21 05:38:51;;;;;;;0.10;0.10;;;;;;;;;;4925068;29;20039;-94
2022/03/21 05:41:17;;;;;;;0.10;0.10;;;;;;;;;;4924761;28;20043;-95
2022/03/21 05:43:43;;;;;;;0.10;0.10;;;;;;;;;;4924603;29;20051;-95
2022/03/21 05:46:09;;;;;;;0.10;0.10;;;;;;;;;;4924723;29;20141;-95
2022/03/21 05:48:50;;;;;;;0.10;0.10;;;;;;;;;;4929024;28;20035;-92
2022/03/21 05:51:17;;;;;;;0.10;0.10;;;;;;;;;;4964350;28;20055;-91
2022/03/21 05:53:45;;;;;;;0.08;0.08;;;;;;;;;;4932757;29;20055;-91
2022/03/21 05:56:11;;;;;;;0.10;0.10;;;;;;;;;;4932118;29;20070;-95
2022/03/21 05:58:37;;;;;;;0.10;0.10;;;;;;;;;;4941888;29;20038;-95
2022/03/21 06:01:03;;;;;;;0.10;0.10;;;;;;;;;;4925332;29;20039;-95
2022/03/21 06:03:34;;;;;;;0.10;0.10;;;;;;;;;;4925251;29;20047;-96
2022/03/21 06:06:00;;;;;;;0.00;0.00;;;;;;;;;;4943305;29;20050;-95
2022/03/21 06:08:27;;;;;;;0.10;0.10;;;;;;;;;;4924278;29;20043;-94
2022/03/21 06:11:05;;;;;;;0.10;0.10;;;;;;;;;;4928520;29;20090;-96
2022/03/21 06:13:32;;;;;;;0.10;0.10;;;;;;;;;;4934721;29;20047;-92
2022/03/21 06:16:01;;;;;;;0.10;0.10;;;;;;;;;;4968189;28;20119;-96
2022/03/21 06:18:27;;;;;;;0.10;0.10;;;;;;;;;;4924967;29;20553;-95
2022/03/21 06:20:54;;;;;;;0.10;0.10;;;;;;;;;;4923970;29;20130;-94
2022/03/21 06:23:20;;;;;;;0.10;0.10;;;;;;;;;;4925845;29;20043;-94
2022/03/21 06:25:46;;;;;;;0.10;0.10;;;;;;;;;;4923894;29;20101;-95
2022/03/21 06:28:12;;;;;;;0.10;0.10;;;;;;;;;;4923942;29;20055;-96
2022/03/21 06:30:38;;;;;;;0.10;0.10;;;;;;;;;;4924046;29;20039;-96
2022/03/21 06:33:04;;;;;;;0.10;0.10;;;;;;;;;;4924302;29;20096;-96
2022/03/21 06:35:32;;;;;;;0.10;0.10;;;;;;;;;;4924773;29;20201;-96
2022/03/21 06:37:59;;;;;;;0.10;0.10;;;;;;;;;;4926151;29;20046;-95
2022/03/21 06:40:31;;;;;;;0.10;0.10;;;;;;;;;;4941633;29;20062;-94
2022/03/21 06:48:09;;;;;;;0.10;0.10;;;;;;;;;;5254832;23;20061;-95
2022/03/21 06:50:37;;;;;;;0.10;0.10;;;;;;;;;;4945764;28;20046;-93
2022/03/21 06:53:02;;;;;;;0.10;0.10;;;;;;;;;;4945725;28;20042;-93
2022/03/21 06:55:29;;;;;;;0.10;0.10;;;;;;;;;;4945416;28;20039;-95
2022/03/21 06:57:56;;;;;;;0.10;0.10;;;;;;;;;;4946031;28;20035;-94
2022/03/21 07:00:22;;;;;;;0.10;0.10;;;;;;;;;;4945438;28;20120;-94
2022/03/21 07:02:48;;;;;;;0.10;0.10;;;;;;;;;;4948815;28;20103;-93
2022/03/21 07:05:14;;;;;;;0.10;0.10;;;;;;;;;;4949238;28;20050;-93
2022/03/21 07:07:40;;;;;;;0.10;0.10;;;;;;;;;;4964898;28;20050;-93
2022/03/21 07:10:06;;;;;;;0.20;0.20;;;;;;;;;;4949511;28;20474;-93
2022/03/21 07:12:34;;;;;;;0.10;0.10;;;;;;;;;;4948878;28;20042;-92
2022/03/21 07:15:00;;;;;;;0.10;0.10;;;;;;;;;;4948322;28;20050;-91
2022/03/21 07:17:26;;;;;;;0.10;0.10;;;;;;;;;;4948525;28;20038;-92
2022/03/21 07:19:52;;;;;;;0.50;0.50;;;;;;;;;;4948585;28;20040;-90
2022/03/21 07:22:18;;;;;;;0.10;0.10;;;;;;;;;;4964087;28;20042;-90
2022/03/21 07:24:44;;;;;;;0.10;0.10;;;;;;;;;;4948369;28;20038;-93
2022/03/21 07:27:12;;;;;;;0.10;0.10;;;;;;;;;;4943694;28;20054;-93
2022/03/21 07:29:38;;;;;;;0.10;0.10;;;;;;;;;;4945464;28;20615;-93
2022/03/21 07:32:06;;;;;;;0.52;0.30;;;;;;;;;;4990810;23;20062;-94
2022/03/21 07:34:36;;;;;;;0.35;0.22;;;;;;;;;;4961725;28;20070;-94
2022/03/21 07:37:02;;;;;;;0.10;0.10;;;;;;;;;;4961518;28;20043;-92
2022/03/21 07:39:29;;;;;;;0.10;0.10;;;;;;;;;;4961652;28;20035;-91
2022/03/21 07:42:00;;;;;;;0.10;0.10;;;;;;;;;;4961383;28;20047;-93
2022/03/21 07:47:20;;;;;;;0.10;0.10;;;;;;;;;;4963514;28;20043;-92
2022/03/21 07:49:50;;;;;;;0.17;0.17;;;;;;;;;;4946525;28;20150;-93
2022/03/21 07:52:20;;;;;;;0.10;0.10;;;;;;;;;;4945322;28;20089;-93
2022/03/21 07:54:53;;;;;;;0.75;0.68;;;;;;;;;;4945338;28;20125;-92
2022/03/21 07:57:19;;;;;;;0.40;0.20;;;;;;;;;;4945712;28;20047;-93
2022/03/21 07:59:45;;;;;;;0.25;0.25;;;;;;;;;;4944843;28;20059;-92
2022/03/21 08:02:11;;;;;;;0.10;0.10;;;;;;;;;;4944915;28;20054;-94
2022/03/21 08:04:37;;;;;;;0.10;0.10;;;;;;;;;;4960767;28;20078;-93
2022/03/21 08:07:03;;;;;;;0.10;0.10;;;;;;;;;;4960595;28;20043;-93
2022/03/21 08:09:29;;;;;;;0.10;0.10;;;;;;;;;;4960923;28;20070;-93
2022/03/21 08:11:57;;;;;;;0.20;0.20;;;;;;;;;;4944844;28;20046;-93
2022/03/21 08:14:24;;;;;;;0.63;0.63;;;;;;;;;;4943971;28;20549;-93
2022/03/21 08:16:50;;;;;;;0.10;0.10;;;;;;;;;;4944695;28;20047;-93
2022/03/21 08:19:16;;;;;;;0.15;0.15;;;;;;;;;;4976060;28;20043;-93
2022/03/21 08:21:43;;;;;;;1.23;0.20;;;;;;;;;;4943483;28;20094;-93
2022/03/21 08:24:11;;;;;;;0.10;0.10;;;;;;;;;;4944289;28;20137;-92
2022/03/21 08:26:38;;;;;;;0.10;0.10;;;;;;;;;;4944082;28;20101;-92
2022/03/21 08:29:03;;;;;;;0.10;0.10;;;;;;;;;;4944221;28;20203;-92
2022/03/21 08:31:29;;;;;;;0.20;0.20;;;;;;;;;;4945105;28;20238;-93
2022/03/21 08:33:56;;;;;;;0.20;0.20;;;;;;;;;;4979461;28;20042;-93
2022/03/21 08:36:22;;;;;;;0.38;0.20;;;;;;;;;;4979121;28;20109;-93
2022/03/21 08:38:48;;;;;;;0.10;0.10;;;;;;;;;;4979321;28;20505;-93
2022/03/21 08:41:14;;;;;;;0.10;0.10;;;;;;;;;;4979238;28;20303;-94
2022/03/21 08:43:41;;;;;;;0.10;0.10;;;;;;;;;;4979654;28;20061;-94
2022/03/21 08:46:07;;;;;;;0.10;0.10;;;;;;;;;;4978906;28;20482;-92
2022/03/21 08:51:25;;;;;;;1.45;0.70;;;;;;;;;;4967328;28;20402;-92
2022/03/21 08:53:51;;;;;;;0.10;0.10;;;;;;;;;;4978913;28;20401;-92
2022/03/21 08:56:17;;;;;;;0.20;0.20;;;;;;;;;;4979010;28;20046;-94
2022/03/21 08:58:43;;;;;;;0.10;0.10;;;;;;;;;;4979089;28;20450;-93
2022/03/21 09:01:09;;;;;;;0.30;0.30;;;;;;;;;;4978584;28;20041;-93
2022/03/21 09:03:36;;;;;;;0.10;0.10;;;;;;;;;;4978969;28;20050;-93
2022/03/21 09:06:02;;;;;;;0.10;0.10;;;;;;;;;;4979223;28;20038;-94
2022/03/21 09:08:28;;;;;;;0.20;0.20;;;;;;;;;;4978069;28;20042;-94
2022/03/21 09:10:55;;;;;;;0.25;0.25;;;;;;;;;;4978302;28;20076;-93
2022/03/21 09:13:21;;;;;;;0.32;0.32;;;;;;;;;;4994983;28;20069;-92
2022/03/21 09:15:47;;;;;;;0.20;0.20;;;;;;;;;;4978647;28;20034;-92
2022/03/21 09:18:13;;;;;;;0.30;0.30;;;;;;;;;;4978324;28;20030;-92
2022/03/21 09:20:39;;;;;;;0.10;0.10;;;;;;;;;;4994617;28;20043;-93
2022/03/21 09:23:05;;;;;;;0.22;0.22;;;;;;;;;;4994415;28;20039;-93
2022/03/21 09:25:31;;;;;;;0.30;0.30;;;;;;;;;;4977302;28;20070;-92
2022/03/21 09:27:57;;;;;;;0.10;0.10;;;;;;;;;;4978204;28;20482;-92
2022/03/21 09:30:23;;;;;;;0.10;0.10;;;;;;;;;;4978243;28;20045;-93
2022/03/21 09:32:50;;;;;;;0.20;0.20;;;;;;;;;;4977845;28;20092;-92
2022/03/21 09:35:16;;;;;;;0.57;0.57;;;;;;;;;;4977608;28;20050;-92
2022/03/21 09:37:42;;;;;;;0.57;0.57;;;;;;;;;;4978121;28;20057;-93
2022/03/21 09:40:08;;;;;;;0.40;0.40;;;;;;;;;;4978257;28;20076;-93
2022/03/21 09:42:35;;;;;;;0.10;0.10;;;;;;;;;;4977974;28;20046;-94
2022/03/21 09:45:02;;;;;;;0.10;0.10;;;;;;;;;;4978136;28;20485;-93
2022/03/21 09:50:21;;;;;;;0.10;0.10;;;;;;;;;;5137217;27;20043;-90
2022/03/21 09:52:47;;;;;;;0.20;0.20;;;;;;;;;;5117232;27;20061;-90
2022/03/21 09:55:13;;;;;;;0.40;0.40;;;;;;;;;;5116332;27;20073;-90
2022/03/21 09:57:39;;;;;;;0.20;0.20;;;;;;;;;;5117018;27;20057;-91
2022/03/21 10:00:05;;;;;;;0.30;0.30;;;;;;;;;;5117063;27;20039;-91
2022/03/21 10:02:31;;;;;;;0.20;0.20;;;;;;;;;;5117409;27;20045;-91
2022/03/21 10:04:57;;;;;;;0.20;0.20;;;;;;;;;;5116886;27;20434;-90
2022/03/21 10:07:24;;;;;;;0.63;0.63;;;;;;;;;;5133985;27;20047;-90
2022/03/21 10:10:06;;;;;;;0.20;0.20;;;;;;;;;;5134322;27;20443;-91
2022/03/21 10:12:32;;;;;;;2.40;1.08;;;;;;;;;;5151547;27;20396;-90
2022/03/21 10:14:59;;;;;;;0.10;0.10;;;;;;;;;;5133750;27;20039;-92
2022/03/21 10:17:25;;;;;;;0.95;0.20;;;;;;;;;;5116764;27;20081;-90
2022/03/21 10:19:52;;;;;;;0.10;0.10;;;;;;;;;;5116946;27;20127;-90
2022/03/21 10:22:34;;;;;;;0.35;0.35;;;;;;;;;;5116835;27;20050;-90
2022/03/21 10:25:07;;;;;;;0.20;0.20;;;;;;;;;;5133388;27;20095;-90
2022/03/21 10:27:37;;;;;;;0.40;0.40;;;;;;;;;;5116734;27;20049;-90
2022/03/21 10:30:08;;;;;;;0.57;0.57;;;;;;;;;;5116858;27;20069;-90
2022/03/21 10:32:39;;;;;;;0.75;0.28;;;;;;;;;;5116782;27;20175;-90
2022/03/21 10:35:05;;;;;;;0.17;0.17;;;;;;;;;;5150614;27;20042;-91
2022/03/21 10:37:43;;;;;;;0.28;0.28;;;;;;;;;;5150137;27;20051;-90
2022/03/21 10:40:21;;;;;;;0.10;0.10;;;;;;;;;;5116560;27;20512;-90
2022/03/21 10:42:52;;;;;;;0.30;0.30;;;;;;;;;;5133254;27;20489;-90
2022/03/21 10:45:18;;;;;;;0.50;0.50;;;;;;;;;;5116191;27;20059;-90
2022/03/21 10:47:51;;;;;;;0.47;0.47;;;;;;;;;;5116251;27;20096;-90
2022/03/21 10:50:26;;;;;;;1.58;0.75;;;;;;;;;;5116211;27;20031;-93
2022/03/21 10:53:04;;;;;;;0.15;0.15;;;;;;;;;;5116028;27;20035;-93
2022/03/21 10:55:30;;;;;;;0.20;0.20;;;;;;;;;;5132946;27;20509;-92
2022/03/21 10:57:56;;;;;;;0.10;0.10;;;;;;;;;;5124770;27;20116;-93
2022/03/21 11:00:23;;;;;;;0.30;0.30;;;;;;;;;;5102214;27;20039;-92
2022/03/21 11:02:50;;;;;;;0.15;0.15;;;;;;;;;;5102281;27;20074;-92
2022/03/21 11:05:16;;;;;;;0.20;0.20;;;;;;;;;;5118188;27;20104;-92
2022/03/21 11:07:42;;;;;;;0.20;0.20;;;;;;;;;;5101977;27;20042;-93
2022/03/21 11:10:08;;;;;;;0.20;0.20;;;;;;;;;;5102328;27;20039;-92
2022/03/21 11:12:35;;;;;;;0.22;0.22;;;;;;;;;;5118652;27;20035;-92
2022/03/21 11:15:01;;;;;;;0.10;0.10;;;;;;;;;;5118406;27;20111;-93
2022/03/21 11:17:27;;;;;;;0.38;0.38;;;;;;;;;;5102153;27;20394;-93
2022/03/21 11:19:53;;;;;;;0.70;0.30;;;;;;;;;;5119007;27;20042;-93
2022/03/21 11:22:19;;;;;;;0.30;0.30;;;;;;;;;;5101926;27;20126;-92
2022/03/21 11:24:45;;;;;;;0.20;0.20;;;;;;;;;;5101324;27;20035;-91
2022/03/21 11:27:14;;;;;;;0.20;0.20;;;;;;;;;;5118746;27;20416;-92
2022/03/21 11:30:01;;;;;;;0.40;0.30;;;;;;;;;;5118425;27;20035;-92
2022/03/21 11:32:27;;;;;;;0.30;0.30;;;;;;;;;;5101725;27;20077;-93
2022/03/21 11:35:12;;;;;;;0.10;0.10;;;;;;;;;;5118499;27;20043;-92
2022/03/21 11:37:38;;;;;;;0.10;0.10;;;;;;;;;;5118630;27;20071;-92
2022/03/21 11:40:23;;;;;;;0.20;0.20;;;;;;;;;;5102018;27;20524;-92
2022/03/21 11:42:49;;;;;;;0.20;0.20;;;;;;;;;;5135881;27;20058;-94
2022/03/21 11:45:27;;;;;;;0.10;0.10;;;;;;;;;;5101183;27;20042;-93
2022/03/21 11:48:12;;;;;;;0.20;0.20;;;;;;;;;;5101354;27;20406;-92
2022/03/21 11:50:38;;;;;;;0.10;0.10;;;;;;;;;;5118498;27;20046;-91
2022/03/21 11:53:06;;;;;;;0.52;0.52;;;;;;;;;;5101549;27;20492;-92
2022/03/21 11:55:36;;;;;;;0.25;0.22;;;;;;;;;;5118510;27;20635;-93
2022/03/21 11:58:21;;;;;;;0.20;0.20;;;;;;;;;;5101357;27;20079;-92
2022/03/21 12:01:02;;;;;;;0.10;0.10;;;;;;;;;;5117946;27;20051;-92
2022/03/21 12:03:28;;;;;;;0.20;0.20;;;;;;;;;;5118216;27;20130;-91
2022/03/21 12:05:54;;;;;;;0.20;0.20;;;;;;;;;;5101052;27;20387;-91
2022/03/21 12:08:30;;;;;;;0.47;0.28;;;;;;;;;;5118137;27;20071;-93
2022/03/21 12:10:56;;;;;;;0.20;0.20;;;;;;;;;;5100361;27;20031;-93
2022/03/21 12:13:22;;;;;;;0.10;0.10;;;;;;;;;;5100991;27;20053;-93
2022/03/21 12:15:51;;;;;;;0.20;0.20;;;;;;;;;;5100727;27;20039;-93
2022/03/21 12:18:19;;;;;;;0.20;0.20;;;;;;;;;;5117825;27;20039;-91
2022/03/21 12:20:51;;;;;;;0.65;0.35;;;;;;;;;;5101323;27;20127;-91
2022/03/21 12:23:21;;;;;;;0.20;0.20;;;;;;;;;;5103628;27;20516;-92
2022/03/21 12:25:47;;;;;;;0.10;0.10;;;;;;;;;;5102977;27;20070;-91
2022/03/21 12:28:16;;;;;;;0.45;0.45;;;;;;;;;;5120341;27;20035;-92
2022/03/21 12:30:48;;;;;;;1.25;0.40;;;;;;;;;;5136748;27;20078;-91
2022/03/21 12:33:14;;;;;;;0.15;0.15;;;;;;;;;;5101473;27;20035;-92
2022/03/21 12:35:42;;;;;;;0.10;0.10;;;;;;;;;;5117824;27;20043;-90
2022/03/21 12:38:09;;;;;;;0.75;0.35;;;;;;;;;;5117443;27;20042;-92
2022/03/21 12:40:35;;;;;;;0.25;0.25;;;;;;;;;;5134402;27;20039;-92
2022/03/21 12:43:03;;;;;;;0.17;0.17;;;;;;;;;;5117396;27;20108;-92
2022/03/21 12:45:30;;;;;;;0.20;0.20;;;;;;;;;;5100325;27;20051;-92
2022/03/21 12:48:04;;;;;;;0.35;0.35;;;;;;;;;;5100618;27;20053;-93
2022/03/21 12:50:30;;;;;;;0.45;0.45;;;;;;;;;;5117365;27;20161;-92
2022/03/21 12:53:00;;;;;;;0.20;0.20;;;;;;;;;;5100554;27;20075;-92
2022/03/21 12:55:26;;;;;;;1.10;0.52;;;;;;;;;;5100083;27;20043;-92
2022/03/21 12:57:56;;;;;;;0.20;0.20;;;;;;;;;;5100279;27;20035;-92
2022/03/21 13:00:23;;;;;;;0.17;0.17;;;;;;;;;;5117009;27;20057;-92
2022/03/21 13:02:51;;;;;;;1.00;0.20;;;;;;;;;;5117487;27;20035;-92
2022/03/21 13:10:50;;;;;;;0.10;0.10;;;;;;;;;;5119355;27;20125;-92
2022/03/21 13:13:16;;;;;;;0.28;0.28;;;;;;;;;;5116792;28;20482;-92
2022/03/21 13:15:42;;;;;;;0.30;0.30;;;;;;;;;;5099885;27;20096;-92
2022/03/21 13:18:08;;;;;;;0.10;0.10;;;;;;;;;;5099718;27;20066;-91
2022/03/21 13:20:38;;;;;;;0.10;0.10;;;;;;;;;;5116159;27;20039;-91
2022/03/21 13:23:04;;;;;;;0.25;0.25;;;;;;;;;;5099724;27;20049;-92
2022/03/21 13:25:37;;;;;;;1.08;0.50;;;;;;;;;;5116128;27;20070;-91
2022/03/21 13:28:11;;;;;;;0.10;0.10;;;;;;;;;;5099552;28;20035;-93
2022/03/21 13:30:37;;;;;;;0.15;0.15;;;;;;;;;;5115819;27;20039;-91
2022/03/21 13:33:03;;;;;;;0.40;0.40;;;;;;;;;;5098657;27;20042;-91
2022/03/21 13:35:29;;;;;;;0.10;0.10;;;;;;;;;;5098830;28;20046;-92
2022/03/21 13:38:05;;;;;;;0.50;0.50;;;;;;;;;;5116572;27;20398;-92
2022/03/21 13:40:31;;;;;;;0.10;0.10;;;;;;;;;;5116307;27;20039;-92
2022/03/21 13:43:16;;;;;;;0.10;0.10;;;;;;;;;;5098948;28;20040;-92
2022/03/21 13:45:42;;;;;;;0.20;0.20;;;;;;;;;;5132937;27;20047;-93
2022/03/21 13:48:08;;;;;;;0.10;0.10;;;;;;;;;;5099206;28;20043;-92
2022/03/21 13:50:38;;;;;;;1.40;0.30;;;;;;;;;;5099242;28;20496;-92
2022/03/21 13:53:06;;;;;;;0.10;0.10;;;;;;;;;;5099723;28;20031;-92
2022/03/21 13:55:32;;;;;;;0.52;0.52;;;;;;;;;;5098994;28;20478;-92
2022/03/21 13:58:02;;;;;;;0.15;0.15;;;;;;;;;;5116056;28;20031;-92
2022/03/21 14:00:31;;;;;;;0.10;0.10;;;;;;;;;;5099027;28;20039;-93
2022/03/21 14:02:58;;;;;;;0.10;0.10;;;;;;;;;;5115873;28;20043;-92
2022/03/21 14:05:30;;;;;;;0.10;0.10;;;;;;;;;;5099368;28;20050;-92
2022/03/21 14:08:28;;;;;;;0.20;0.20;;;;;;;;;;5133205;28;20092;-92
2022/03/21 14:11:01;;;;;;;0.20;0.20;;;;;;;;;;5082676;28;20363;-91
2022/03/21 14:13:28;;;;;;;0.20;0.20;;;;;;;;;;5099263;28;20039;-92
2022/03/21 14:15:55;;;;;;;0.10;0.10;;;;;;;;;;5116311;28;20206;-92
2022/03/21 14:18:21;;;;;;;0.22;0.22;;;;;;;;;;5098834;28;20075;-92
2022/03/21 14:20:47;;;;;;;0.10;0.10;;;;;;;;;;5099188;28;20043;-91
2022/03/21 14:23:14;;;;;;;0.10;0.10;;;;;;;;;;5098721;28;20039;-92
2022/03/21 14:28:24;;;;;;;0.28;0.28;;;;;;;;;;5132935;28;20047;-92
2022/03/21 14:30:50;;;;;;;0.17;0.17;;;;;;;;;;5099063;28;20497;-91
2022/03/21 14:33:17;;;;;;;0.15;0.15;;;;;;;;;;5101012;27;20031;-92
2022/03/21 14:35:43;;;;;;;0.10;0.10;;;;;;;;;;5102718;27;20081;-92
2022/03/21 14:38:09;;;;;;;0.22;0.20;;;;;;;;;;5102462;27;20046;-92
2022/03/21 14:40:36;;;;;;;0.10;0.10;;;;;;;;;;5136111;27;20459;-91
2022/03/21 14:43:02;;;;;;;0.70;0.30;;;;;;;;;;5119682;27;20043;-91
2022/03/21 14:45:28;;;;;;;0.10;0.10;;;;;;;;;;5119395;27;20043;-92
2022/03/21 14:47:54;;;;;;;0.30;0.30;;;;;;;;;;5119752;27;20035;-91
2022/03/21 14:50:20;;;;;;;0.20;0.20;;;;;;;;;;5119610;27;20062;-91
2022/03/21 14:52:48;;;;;;;0.35;0.30;;;;;;;;;;5102416;27;20427;-92
2022/03/21 14:55:14;;;;;;;0.30;0.30;;;;;;;;;;5102117;27;20035;-90
2022/03/21 14:57:40;;;;;;;0.10;0.10;;;;;;;;;;5119388;27;20046;-93
2022/03/21 15:00:06;;;;;;;0.10;0.10;;;;;;;;;;5101974;27;20402;-92
2022/03/21 15:02:32;;;;;;;0.13;0.13;;;;;;;;;;5119234;27;20074;-92
2022/03/21 15:04:58;;;;;;;0.13;0.13;;;;;;;;;;5102401;27;20039;-92
2022/03/21 15:07:27;;;;;;;0.20;0.20;;;;;;;;;;5101942;27;20486;-91
2022/03/21 15:12:37;;;;;;;0.20;0.20;;;;;;;;;;5122050;27;20141;-92
2022/03/21 15:15:04;;;;;;;0.32;0.32;;;;;;;;;;5135956;27;20035;-92
2022/03/21 15:17:30;;;;;;;0.25;0.25;;;;;;;;;;5102123;27;20104;-92
2022/03/21 15:19:56;;;;;;;0.10;0.10;;;;;;;;;;5101951;27;20404;-91
2022/03/21 15:22:22;;;;;;;0.40;0.40;;;;;;;;;;5101959;27;20039;-91
2022/03/21 15:24:47;;;;;;;0.20;0.20;;;;;;;;;;5119059;27;20039;-91
2022/03/21 15:27:14;;;;;;;0.20;0.20;;;;;;;;;;5118114;27;20125;-91
2022/03/21 15:29:40;;;;;;;0.30;0.30;;;;;;;;;;5101668;27;20039;-92
2022/03/21 15:32:06;;;;;;;0.35;0.35;;;;;;;;;;5102250;27;20043;-93
2022/03/21 15:34:32;;;;;;;1.45;0.30;;;;;;;;;;5101538;27;20088;-93
2022/03/21 15:42:27;;;;;;;0.30;0.30;;;;;;;;;;5120914;27;20525;-91
2022/03/21 15:44:53;;;;;;;0.17;0.17;;;;;;;;;;5101059;27;20045;-91